First Ferry Viii — VRS4306 — position and weather

sailwx.info

Track history (hours):
 
Tides and Currents Weather Stations Pressure Air Temp Water Temp Dewpoint Dewpoint Depression Visibility Wind Speed Wind Dir Waves Ship Positions

First Ferry Viii

Last reported at 2016-Jul-24 16:06 UTC. Time now 2016-Jul-24 18:35 UTC.
Position N 22°17' E 114°07'.

Length 36 m; draft 1.8 m.

Type: High speed craft. MMSI: 477995030.

Date/timePositionNaut miles runAvg speedWind from/ knotsBaromVisibWave heightAir tempDewpointWater temp
2016-Jul-24 16:06N 22°17' E 114°07'3 4.5
2016-Jul-24 15:32N 22°17' E 114°10'2 1.8
2016-Jul-24 14:12N 22°18' E 114°07'2 3.3
2016-Jul-24 13:27N 22°17' E 114°10'3 2.1
2016-Jul-24 12:13N 22°17' E 114°07'3 3.9
2016-Jul-24 11:32N 22°17' E 114°10'2 1.7
2016-Jul-24 10:12N 22°18' E 114°07'2 3.1
2016-Jul-24 09:28N 22°17' E 114°10'2 1.9
2016-Jul-24 08:12N 22°17' E 114°07'2 3.4
2016-Jul-24 07:29N 22°17' E 114°10'0 0.1
2016-Jul-24 05:33N 22°17' E 114°10'2 1.3
2016-Jul-24 04:12N 22°18' E 114°08'2 2.6
2016-Jul-24 03:29N 22°19' E 114°09'1 0.7
2016-Jul-24 02:16N 22°20' E 114°09'0 0.0
2016-Jul-24 01:11N 22°20' E 114°09'2 4.0
2016-Jul-24 00:33N 22°17' E 114°10'2 1.7
2016-Jul-23 23:10N 22°17' E 114°07'2 3.8
2016-Jul-23 22:33N 22°17' E 114°10'0 0.0
2016-Jul-23 15:32N 22°17' E 114°10'2 1.6
2016-Jul-23 14:11N 22°17' E 114°07'2 3.1
2016-Jul-23 13:29N 22°17' E 114°10'3 2.1
2016-Jul-23 12:12N 22°17' E 114°07'2 3.7
2016-Jul-23 11:33N 22°18' E 114°09'2 2.3
2016-Jul-23 10:31N 22°17' E 114°07'3 1.2
2016-Jul-23 08:24N 22°17' E 114°10'0 0.1
2016-Jul-23 06:33N 22°17' E 114°09'2 0.6
2016-Jul-23 02:30N 22°20' E 114°09'2 1.2
2016-Jul-23 00:33N 22°17' E 114°10'3 2.4
2016-Jul-22 23:24N 22°18' E 114°06'3 0.4
2016-Jul-22 15:33N 22°17' E 114°10'3 1.9
2016-Jul-22 14:07N 22°18' E 114°07'3 4.7
2016-Jul-22 13:33N 22°17' E 114°10'2 1.3
2016-Jul-22 12:10N 22°18' E 114°08'1 1.3
2016-Jul-22 11:34N 22°18' E 114°09'1 1.0
2016-Jul-22 10:33N 22°18' E 114°07'2 1.0
2016-Jul-22 08:33N 22°17' E 114°10'0 0.0
2016-Jul-22 06:29N 22°17' E 114°10'1 0.3
2016-Jul-22 03:04N 22°18' E 114°11'2 2.9
2016-Jul-22 02:21N 22°19' E 114°09'1 0.8
2016-Jul-22 00:33N 22°17' E 114°09'3 2.2
2016-Jul-21 23:21N 22°18' E 114°06'3 0.4
2016-Jul-21 15:33N 22°17' E 114°10'2 1.8
2016-Jul-21 14:11N 22°17' E 114°07'2 3.9
2016-Jul-21 13:33N 22°17' E 114°10'2 1.6
2016-Jul-21 12:11N 22°18' E 114°07'0 0.3
2016-Jul-21 10:31N 22°18' E 114°08'2 0.8
2016-Jul-21 08:25N 22°17' E 114°10'0 0.0
2016-Jul-21 06:29N 22°17' E 114°10'0 0.0
2016-Jul-21 04:30N 22°17' E 114°10'0 0.0
2016-Jul-21 00:33N 22°17' E 114°09'2 1.9
2016-Jul-20 23:21N 22°17' E 114°07'2 0.3
2016-Jul-20 15:31N 22°17' E 114°10'2 1.6
2016-Jul-20 14:11N 22°18' E 114°07'2 3.4
2016-Jul-20 13:33N 22°17' E 114°10'3 1.9
2016-Jul-20 12:12N 22°17' E 114°07'1 0.4
2016-Jul-20 10:33N 22°18' E 114°08'2 0.9
2016-Jul-20 08:27N 22°17' E 114°10'1 0.2
2016-Jul-20 05:31N 22°17' E 114°10'1 0.4
2016-Jul-20 03:33N 22°17' E 114°10'1 0.5
2016-Jul-20 01:33N 22°18' E 114°09'1 0.9
2016-Jul-20 00:33N 22°17' E 114°10'3 2.1
2016-Jul-19 23:21N 22°17' E 114°07'3 0.3
2016-Jul-19 15:34N 22°17' E 114°10'2 1.7
2016-Jul-19 14:11N 22°17' E 114°07'2 3.8
2016-Jul-19 13:33N 22°17' E 114°10'2 1.5
2016-Jul-19 12:10N 22°18' E 114°07'1 1.4
2016-Jul-19 11:33N 22°18' E 114°08'0 0.3
2016-Jul-19 10:31N 22°18' E 114°08'2 0.7
2016-Jul-19 08:25N 22°17' E 114°10'0 0.0
2016-Jul-19 06:31N 22°17' E 114°10'0 0.0
2016-Jul-19 04:32N 22°17' E 114°10'0 0.0
2016-Jul-19 00:34N 22°17' E 114°10'2 2.0
2016-Jul-18 23:22N 22°17' E 114°07'2 0.3
2016-Jul-18 15:33N 22°17' E 114°10'1 1.0
2016-Jul-18 14:09N 22°18' E 114°08'1 2.2
2016-Jul-18 13:32N 22°17' E 114°10'2 1.3
2016-Jul-18 12:10N 22°18' E 114°08'0 0.2
2016-Jul-18 10:30N 22°18' E 114°08'1 0.7
2016-Jul-18 08:33N 22°17' E 114°10'1 0.4
2016-Jul-18 05:33N 22°17' E 114°11'1 0.6
2016-Jul-18 03:33N 22°17' E 114°10'1 0.5
2016-Jul-18 01:33N 22°18' E 114°09'1 0.9
2016-Jul-18 00:33N 22°17' E 114°10'2 1.2
2016-Jul-17 23:18N 22°18' E 114°08'1 0.1
2016-Jul-17 16:06N 22°17' E 114°07'3 4.8
2016-Jul-17 15:33N 22°17' E 114°10'2 1.6
2016-Jul-17 14:12N 22°17' E 114°07'2 3.3
2016-Jul-17 13:33N 22°17' E 114°10'3 1.8
2016-Jul-17 12:11N 22°17' E 114°07'3 3.9
2016-Jul-17 11:33N 22°17' E 114°10'2 1.8
2016-Jul-17 10:12N 22°17' E 114°07'2 3.3
2016-Jul-17 09:29N 22°17' E 114°10'2 1.6
2016-Jul-17 08:09N 22°18' E 114°07'2 3.5
2016-Jul-17 07:33N 22°17' E 114°10'1 0.2
2016-Jul-17 00:26N 22°18' E 114°11'1 1.4
2016-Jul-16 23:33N 22°17' E 114°10'0 0.0
2016-Jul-16 16:34N 22°17' E 114°10'2 1.8
2016-Jul-16 15:13N 22°18' E 114°07'3 3.6
2016-Jul-16 14:31N 22°17' E 114°10'2 1.8
2016-Jul-16 13:11N 22°17' E 114°07'2 2.6
2016-Jul-16 12:33N 22°18' E 114°09'1 0.3
2016-Jul-16 09:33N 22°17' E 114°10'0 0.0
2016-Jul-16 07:32N 22°17' E 114°10'0 0.0
2016-Jul-16 03:33N 22°17' E 114°10'0 0.0
2016-Jul-16 01:34N 22°17' E 114°10'3 1.9
2016-Jul-16 00:12N 22°17' E 114°07'3 4.0
2016-Jul-15 23:33N 22°17' E 114°10'0 0.0
2016-Jul-15 16:32N 22°17' E 114°10'3 1.9
2016-Jul-15 15:11N 22°17' E 114°07'3 4.0
2016-Jul-15 14:32N 22°17' E 114°10'2 1.7
2016-Jul-15 13:11N 22°17' E 114°07'2 3.0
2016-Jul-15 12:33N 22°18' E 114°09'0 0.2
2016-Jul-15 09:28N 22°17' E 114°10'0 0.0
2016-Jul-15 07:33N 22°17' E 114°10'0 0.0
2016-Jul-15 05:33N 22°17' E 114°10'0 0.1
2016-Jul-15 02:31N 22°17' E 114°10'1 0.8
2016-Jul-15 01:33N 22°17' E 114°09'2 1.4
2016-Jul-15 00:10N 22°17' E 114°07'2 3.1
2016-Jul-14 23:33N 22°17' E 114°09'0 0.0
2016-Jul-14 16:34N 22°17' E 114°09'  
Track history (hours):
 
Tides and Currents Weather Stations Pressure Air Temp Water Temp Dewpoint Dewpoint Depression Visibility Wind Speed Wind Dir Waves Ship Positions

First Ferry Viii

Last reported at 2016-Jul-24 16:06 UTC. Time now 2016-Jul-24 18:35 UTC.
Position N 22°17' E 114°07'.

Length 36 m; draft 1.8 m.

Type: High speed craft. MMSI: 477995030.

Date/timePositionNaut miles runAvg speedWind from/ knotsBaromVisibWave heightAir tempDewpointWater temp
2016-Jul-24 16:06N 22°17' E 114°07'3 4.5
2016-Jul-24 15:32N 22°17' E 114°10'2 1.8
2016-Jul-24 14:12N 22°18' E 114°07'2 3.3
2016-Jul-24 13:27N 22°17' E 114°10'3 2.1
2016-Jul-24 12:13N 22°17' E 114°07'3 3.9
2016-Jul-24 11:32N 22°17' E 114°10'2 1.7
2016-Jul-24 10:12N 22°18' E 114°07'2 3.1
2016-Jul-24 09:28N 22°17' E 114°10'2 1.9
2016-Jul-24 08:12N 22°17' E 114°07'2 3.4
2016-Jul-24 07:29N 22°17' E 114°10'0 0.1
2016-Jul-24 05:33N 22°17' E 114°10'2 1.3
2016-Jul-24 04:12N 22°18' E 114°08'2 2.6
2016-Jul-24 03:29N 22°19' E 114°09'1 0.7
2016-Jul-24 02:16N 22°20' E 114°09'0 0.0
2016-Jul-24 01:11N 22°20' E 114°09'2 4.0
2016-Jul-24 00:33N 22°17' E 114°10'2 1.7
2016-Jul-23 23:10N 22°17' E 114°07'2 3.8
2016-Jul-23 22:33N 22°17' E 114°10'0 0.0
2016-Jul-23 15:32N 22°17' E 114°10'2 1.6
2016-Jul-23 14:11N 22°17' E 114°07'2 3.1
2016-Jul-23 13:29N 22°17' E 114°10'3 2.1
2016-Jul-23 12:12N 22°17' E 114°07'2 3.7
2016-Jul-23 11:33N 22°18' E 114°09'2 2.3
2016-Jul-23 10:31N 22°17' E 114°07'3 1.2
2016-Jul-23 08:24N 22°17' E 114°10'0 0.1
2016-Jul-23 06:33N 22°17' E 114°09'2 0.6
2016-Jul-23 02:30N 22°20' E 114°09'2 1.2
2016-Jul-23 00:33N 22°17' E 114°10'3 2.4
2016-Jul-22 23:24N 22°18' E 114°06'3 0.4
2016-Jul-22 15:33N 22°17' E 114°10'3 1.9
2016-Jul-22 14:07N 22°18' E 114°07'3 4.7
2016-Jul-22 13:33N 22°17' E 114°10'2 1.3
2016-Jul-22 12:10N 22°18' E 114°08'1 1.3
2016-Jul-22 11:34N 22°18' E 114°09'1 1.0
2016-Jul-22 10:33N 22°18' E 114°07'2 1.0
2016-Jul-22 08:33N 22°17' E 114°10'0 0.0
2016-Jul-22 06:29N 22°17' E 114°10'1 0.3
2016-Jul-22 03:04N 22°18' E 114°11'2 2.9
2016-Jul-22 02:21N 22°19' E 114°09'1 0.8
2016-Jul-22 00:33N 22°17' E 114°09'3 2.2
2016-Jul-21 23:21N 22°18' E 114°06'3 0.4
2016-Jul-21 15:33N 22°17' E 114°10'2 1.8
2016-Jul-21 14:11N 22°17' E 114°07'2 3.9
2016-Jul-21 13:33N 22°17' E 114°10'2 1.6
2016-Jul-21 12:11N 22°18' E 114°07'0 0.3
2016-Jul-21 10:31N 22°18' E 114°08'2 0.8
2016-Jul-21 08:25N 22°17' E 114°10'0 0.0
2016-Jul-21 06:29N 22°17' E 114°10'0 0.0
2016-Jul-21 04:30N 22°17' E 114°10'0 0.0
2016-Jul-21 00:33N 22°17' E 114°09'2 1.9
2016-Jul-20 23:21N 22°17' E 114°07'2 0.3
2016-Jul-20 15:31N 22°17' E 114°10'2 1.6
2016-Jul-20 14:11N 22°18' E 114°07'2 3.4
2016-Jul-20 13:33N 22°17' E 114°10'3 1.9
2016-Jul-20 12:12N 22°17' E 114°07'1 0.4
2016-Jul-20 10:33N 22°18' E 114°08'2 0.9
2016-Jul-20 08:27N 22°17' E 114°10'1 0.2
2016-Jul-20 05:31N 22°17' E 114°10'1 0.4
2016-Jul-20 03:33N 22°17' E 114°10'1 0.5
2016-Jul-20 01:33N 22°18' E 114°09'1 0.9
2016-Jul-20 00:33N 22°17' E 114°10'3 2.1
2016-Jul-19 23:21N 22°17' E 114°07'3 0.3
2016-Jul-19 15:34N 22°17' E 114°10'2 1.7
2016-Jul-19 14:11N 22°17' E 114°07'2 3.8
2016-Jul-19 13:33N 22°17' E 114°10'2 1.5
2016-Jul-19 12:10N 22°18' E 114°07'1 1.4
2016-Jul-19 11:33N 22°18' E 114°08'0 0.3
2016-Jul-19 10:31N 22°18' E 114°08'2 0.7
2016-Jul-19 08:25N 22°17' E 114°10'0 0.0
2016-Jul-19 06:31N 22°17' E 114°10'0 0.0
2016-Jul-19 04:32N 22°17' E 114°10'0 0.0
2016-Jul-19 00:34N 22°17' E 114°10'2 2.0
2016-Jul-18 23:22N 22°17' E 114°07'2 0.3
2016-Jul-18 15:33N 22°17' E 114°10'1 1.0
2016-Jul-18 14:09N 22°18' E 114°08'1 2.2
2016-Jul-18 13:32N 22°17' E 114°10'2 1.3
2016-Jul-18 12:10N 22°18' E 114°08'0 0.2
2016-Jul-18 10:30N 22°18' E 114°08'1 0.7
2016-Jul-18 08:33N 22°17' E 114°10'1 0.4
2016-Jul-18 05:33N 22°17' E 114°11'1 0.6
2016-Jul-18 03:33N 22°17' E 114°10'1 0.5
2016-Jul-18 01:33N 22°18' E 114°09'1 0.9
2016-Jul-18 00:33N 22°17' E 114°10'2 1.2
2016-Jul-17 23:18N 22°18' E 114°08'1 0.1
2016-Jul-17 16:06N 22°17' E 114°07'3 4.8
2016-Jul-17 15:33N 22°17' E 114°10'2 1.6
2016-Jul-17 14:12N 22°17' E 114°07'2 3.3
2016-Jul-17 13:33N 22°17' E 114°10'3 1.8
2016-Jul-17 12:11N 22°17' E 114°07'3 3.9
2016-Jul-17 11:33N 22°17' E 114°10'2 1.8
2016-Jul-17 10:12N 22°17' E 114°07'2 3.3
2016-Jul-17 09:29N 22°17' E 114°10'2 1.6
2016-Jul-17 08:09N 22°18' E 114°07'2 3.5
2016-Jul-17 07:33N 22°17' E 114°10'1 0.2
2016-Jul-17 00:26N 22°18' E 114°11'1 1.4
2016-Jul-16 23:33N 22°17' E 114°10'0 0.0
2016-Jul-16 16:34N 22°17' E 114°10'2 1.8
2016-Jul-16 15:13N 22°18' E 114°07'3 3.6
2016-Jul-16 14:31N 22°17' E 114°10'2 1.8
2016-Jul-16 13:11N 22°17' E 114°07'2 2.6
2016-Jul-16 12:33N 22°18' E 114°09'1 0.3
2016-Jul-16 09:33N 22°17' E 114°10'0 0.0
2016-Jul-16 07:32N 22°17' E 114°10'0 0.0
2016-Jul-16 03:33N 22°17' E 114°10'0 0.0
2016-Jul-16 01:34N 22°17' E 114°10'3 1.9
2016-Jul-16 00:12N 22°17' E 114°07'3 4.0
2016-Jul-15 23:33N 22°17' E 114°10'0 0.0
2016-Jul-15 16:32N 22°17' E 114°10'3 1.9
2016-Jul-15 15:11N 22°17' E 114°07'3 4.0
2016-Jul-15 14:32N 22°17' E 114°10'2 1.7
2016-Jul-15 13:11N 22°17' E 114°07'2 3.0
2016-Jul-15 12:33N 22°18' E 114°09'0 0.2
2016-Jul-15 09:28N 22°17' E 114°10'0 0.0
2016-Jul-15 07:33N 22°17' E 114°10'0 0.0
2016-Jul-15 05:33N 22°17' E 114°10'0 0.1
2016-Jul-15 02:31N 22°17' E 114°10'1 0.8
2016-Jul-15 01:33N 22°17' E 114°09'2 1.4
2016-Jul-15 00:10N 22°17' E 114°07'2 3.1
2016-Jul-14 23:33N 22°17' E 114°09'0 0.0
2016-Jul-14 16:34N 22°17' E 114°09'  

Dump ship's entire track history